Scroll down
FLIGHT INFORMATION
Alaska Airlines

ASA832

At Arrival Gate

PHLI
 KSEA
DATE: 2021-09-10
GATE: G7
GATE DEPARTURE: 17:39
TAKEOFF: 17:49
DATE: 2021-09-10
GATE:  -
LANDING: 23:07
GATE ARRIVAL: 23:14
FLIGHT DATA
Crew: 
Speed: 
481 kts
Altitude: 
36,074 ft
Stage Length: 
2,346.0 nm
Block Time: 
5.5 hrs
Flight Time: 
5.3 hrs
Fuel Used: 
30,270 lb
Cleared Route: PHLI LIH SOK ZIGIE ZOULU ZEMOM ZINNO 38N40 41N35 44N30 SEDAR HQM OLM KSEA
TRACK DATA
50,000 ft 1,000 kts
AIRCRAFT INFO AND CUMULATIVE STATS
Aircraft Type: 
B738SSW
Registration: 
SELCAL: 
JQEM
MSN/LN: 
35181 / 2134
Operator: 
Total Flights: 
4
Total Block Time: 
21.7 hrs
Total Flight Time: 
21 hrs
Total Fuel Used: 
112,957 lb
DATALINK LOG | Newest first | Current as of: 2023-02-06 23:36:52
LABEL SEQUENCE CONTENT Dn/Up
QD065223:14 8.5▼ Dn
QC594523:07▼ Dn
2U5157KSEA 110253Z 24009KT 10SM FEW025 BKN035 BKN060 18/12 A3008 RMK AO2 SLP191 T01780122 53016▲ Up
2S4330KSEA▼ Dn
QB541417:49▼ Dn
QA450517:39 38.8▼ Dn
2U1545PHLI 101650Z 32003KT 10SM OVC050 26/18 A3005 RMK ADVANCED INTERPOLATION▲ Up
2S1940PHLI▼ Dn
Q01435[LINK ACK]▲ Up
Q01435[LINK TEST]▼ Dn


AIRCRAFT HISTORY
FLIGHT DATE FLIGHT NO. ORIGIN DESTINATION CLEARED ROUTE BLOCK TIME FLIGHT TIME FUEL USED PILOT
2021-09-12ASA861KSEA PHOG KSEA SEA ELMAA HQM SEDAR 43N35 39N40 35N45 31N50 APACK PHOG5.3 hrs5.2 hrs28,614 lbRyan Syferd
2021-09-10ASA832PHLI KSEA PHLI LIH SOK ZIGIE ZOULU ZEMOM ZINNO 38N40 41N35 44N30 SEDAR HQM OLM KSEA5.5 hrs5.3 hrs30,270 lbRyan Syferd
2020-10-09ASA879KSEA PHLI KSEA HQM SEDAR ZANNG ZAGER ZINNO ZEMOM ZOULU ZIGIE SOK LIH PHLI5.7 hrs5.5 hrs32,042 lbRyan Syferd
2020-07-24ASA9100KGSO KSEA KGSO BOTTM FLM DNV MZV FOD SIMJI FSD DPR MLP EPH KSEA5.2 hrs5.1 hrs22,031 lbRyan Syferd